AAR601 RKSI-YSSY
Flight info
| Callsign | AAR601 |
|---|---|
| Flight time | N/A |
| Altitude | 35000 |
| Route | OSPOT2Y OSPOT Y782 TGU Y781 BESNA Y209 SARUP/N0474F370 Y209 IKE A582 HKC Y14 TGE G339 PAKDO DCT 15N140E DCT JOBSS DCT 10N141E 0500N14145E/N0477F390 DCT KEONE R204 HID DCT ONARA/N0475F410 DCT DOLIB Y173 UBGAN Y161 OVNOM H652 BOREE |
| Aircraft | B772/H-SDE2E3FGHIJ5LORVWXY/LB1D1 |
Departure
| Time | N/A |
|---|---|
| Airport | Incheon International Airport (RKSI) |
Arrival
| Time | 2026-04-20 19:58 |
|---|---|
| Airport | Sydney Kingsford Smith International Airport (YSSY) |
| Time | Latitude | Longitude | Altitude | Speed | Heading |
|---|---|---|---|---|---|
| 2026-04-20 13:03 | 16.24576 | 139.56014 | 37000 ft | 496 kts | 162° |
| 2026-04-20 13:04 | 16.21311 | 139.57174 | 36996 ft | 496 kts | 162° |
| 2026-04-20 13:04 | 16.14778 | 139.59494 | 37002 ft | 496 kts | 162° |
| 2026-04-20 13:05 | 16.08249 | 139.61811 | 37002 ft | 496 kts | 162° |
| 2026-04-20 13:05 | 16.01716 | 139.64128 | 36997 ft | 496 kts | 162° |
| 2026-04-20 13:06 | 15.95195 | 139.66439 | 36997 ft | 495 kts | 162° |
| 2026-04-20 13:06 | 15.88670 | 139.68750 | 36998 ft | 495 kts | 162° |
| 2026-04-20 13:07 | 15.82151 | 139.71057 | 36999 ft | 495 kts | 162° |
| 2026-04-20 13:07 | 15.75640 | 139.73359 | 36998 ft | 494 kts | 162° |
| 2026-04-20 13:08 | 15.69127 | 139.75661 | 37000 ft | 494 kts | 162° |
| 2026-04-20 13:08 | 15.62621 | 139.77959 | 36999 ft | 494 kts | 162° |
| 2026-04-20 13:09 | 15.56110 | 139.80257 | 37000 ft | 494 kts | 162° |
| 2026-04-20 13:09 | 15.49605 | 139.82551 | 36999 ft | 494 kts | 162° |
| 2026-04-20 13:10 | 15.43101 | 139.84844 | 36998 ft | 494 kts | 162° |
| 2026-04-20 13:10 | 15.36598 | 139.87134 | 37000 ft | 493 kts | 161° |
| 2026-04-20 13:11 | 15.30097 | 139.89423 | 36998 ft | 493 kts | 161° |
| 2026-04-20 13:11 | 15.23600 | 139.91708 | 36998 ft | 493 kts | 161° |
| 2026-04-20 13:12 | 15.17143 | 139.93978 | 37001 ft | 493 kts | 161° |
| 2026-04-20 13:12 | 15.10646 | 139.96261 | 37001 ft | 493 kts | 161° |
| 2026-04-20 13:13 | 15.04154 | 139.98541 | 36999 ft | 493 kts | 161° |
| 2026-04-20 13:13 | 14.97612 | 140.00810 | 37002 ft | 492 kts | 162° |
| 2026-04-20 13:14 | 14.91096 | 140.02851 | 36993 ft | 492 kts | 163° |
| 2026-04-20 13:14 | 14.84483 | 140.04857 | 36994 ft | 492 kts | 163° |
| 2026-04-20 13:15 | 14.77916 | 140.06873 | 36992 ft | 492 kts | 163° |
| 2026-04-20 13:15 | 14.71404 | 140.08894 | 36996 ft | 492 kts | 163° |
| 2026-04-20 13:16 | 14.64843 | 140.10935 | 36993 ft | 492 kts | 163° |
| 2026-04-20 13:16 | 14.58290 | 140.12972 | 36996 ft | 492 kts | 163° |
| 2026-04-20 13:17 | 14.51735 | 140.15007 | 36994 ft | 492 kts | 163° |
| 2026-04-20 13:17 | 14.45175 | 140.17042 | 36993 ft | 492 kts | 163° |
| 2026-04-20 13:18 | 14.38623 | 140.19073 | 36995 ft | 492 kts | 163° |
| 2026-04-20 13:18 | 14.32073 | 140.21103 | 36991 ft | 491 kts | 163° |
| 2026-04-20 13:19 | 14.25526 | 140.23130 | 36993 ft | 491 kts | 163° |
| 2026-04-20 13:19 | 14.18978 | 140.25156 | 36995 ft | 491 kts | 163° |
| 2026-04-20 13:20 | 14.12437 | 140.27179 | 36994 ft | 491 kts | 163° |
| 2026-04-20 13:20 | 14.05895 | 140.29201 | 36992 ft | 491 kts | 163° |
| 2026-04-20 13:21 | 13.99360 | 140.31219 | 36993 ft | 490 kts | 163° |
| 2026-04-20 13:21 | 13.92861 | 140.33225 | 36989 ft | 490 kts | 163° |
| 2026-04-20 13:22 | 13.86292 | 140.35252 | 36992 ft | 490 kts | 163° |
| 2026-04-20 13:22 | 13.79807 | 140.37252 | 36995 ft | 490 kts | 163° |
| 2026-04-20 13:23 | 13.73282 | 140.39263 | 36992 ft | 489 kts | 163° |
| 2026-04-20 13:23 | 13.66760 | 140.41271 | 36990 ft | 489 kts | 163° |
| 2026-04-20 13:24 | 13.60239 | 140.43278 | 36994 ft | 489 kts | 163° |
| 2026-04-20 13:24 | 13.53723 | 140.45283 | 36990 ft | 489 kts | 163° |
| 2026-04-20 13:25 | 13.47213 | 140.47284 | 36993 ft | 488 kts | 163° |
| 2026-04-20 13:25 | 13.40702 | 140.49285 | 36992 ft | 488 kts | 163° |
| 2026-04-20 13:26 | 13.34194 | 140.51284 | 36989 ft | 488 kts | 163° |
| 2026-04-20 13:26 | 13.27685 | 140.53281 | 36991 ft | 488 kts | 163° |
| 2026-04-20 13:27 | 13.21177 | 140.55278 | 36989 ft | 488 kts | 163° |
| 2026-04-20 13:27 | 13.14671 | 140.57272 | 36988 ft | 488 kts | 163° |
| 2026-04-20 13:28 | 13.08161 | 140.59267 | 36991 ft | 488 kts | 163° |
| 2026-04-20 13:28 | 13.01645 | 140.61263 | 36988 ft | 488 kts | 163° |
| 2026-04-20 13:29 | 12.95138 | 140.63255 | 36991 ft | 488 kts | 163° |
| 2026-04-20 13:29 | 12.88623 | 140.65248 | 36990 ft | 489 kts | 162° |
| 2026-04-20 13:30 | 12.82108 | 140.67240 | 36989 ft | 489 kts | 162° |
| 2026-04-20 13:30 | 12.75592 | 140.69231 | 36985 ft | 489 kts | 162° |
| 2026-04-20 13:31 | 12.69073 | 140.71222 | 36986 ft | 489 kts | 162° |
| 2026-04-20 13:31 | 12.62559 | 140.73212 | 36987 ft | 489 kts | 162° |
| 2026-04-20 13:32 | 12.56002 | 140.75028 | 36979 ft | 489 kts | 168° |
| 2026-04-20 13:32 | 12.49243 | 140.75838 | 36986 ft | 489 kts | 174° |
| 2026-04-20 13:33 | 12.42458 | 140.76441 | 36986 ft | 489 kts | 174° |
| 2026-04-20 13:33 | 12.35675 | 140.77068 | 36987 ft | 489 kts | 174° |
| 2026-04-20 13:34 | 12.28893 | 140.77724 | 36986 ft | 490 kts | 174° |
| 2026-04-20 13:34 | 12.22108 | 140.78391 | 36984 ft | 490 kts | 174° |
| 2026-04-20 13:35 | 12.15321 | 140.79059 | 36981 ft | 490 kts | 174° |
| 2026-04-20 13:35 | 12.08583 | 140.79720 | 36981 ft | 490 kts | 174° |
| 2026-04-20 13:36 | 12.01794 | 140.80385 | 36981 ft | 490 kts | 174° |
| 2026-04-20 13:36 | 11.96106 | 140.80942 | 36980 ft | 490 kts | 174° |
| 2026-04-20 13:37 | 11.88211 | 140.81714 | 36980 ft | 490 kts | 174° |
| 2026-04-20 13:37 | 11.82527 | 140.82269 | 36979 ft | 490 kts | 174° |
| 2026-04-20 13:38 | 11.75732 | 140.82933 | 36982 ft | 490 kts | 174° |
| 2026-04-20 13:38 | 11.68937 | 140.83597 | 36983 ft | 490 kts | 173° |
| 2026-04-20 13:39 | 11.62146 | 140.84260 | 36981 ft | 490 kts | 173° |
| 2026-04-20 13:39 | 11.55353 | 140.84923 | 36983 ft | 490 kts | 173° |
| 2026-04-20 13:40 | 11.48601 | 140.85582 | 36981 ft | 490 kts | 173° |
| 2026-04-20 13:40 | 11.41812 | 140.86244 | 36979 ft | 490 kts | 173° |
| 2026-04-20 13:41 | 11.35015 | 140.86906 | 36978 ft | 491 kts | 173° |
| 2026-04-20 13:41 | 11.28217 | 140.87568 | 36979 ft | 491 kts | 173° |
| 2026-04-20 13:42 | 11.21418 | 140.88230 | 36976 ft | 491 kts | 173° |
| 2026-04-20 13:42 | 11.11218 | 140.89222 | 36977 ft | 491 kts | 173° |
| 2026-04-20 13:43 | 11.04413 | 140.89884 | 36976 ft | 491 kts | 173° |
| 2026-04-20 13:43 | 10.97610 | 140.90545 | 36976 ft | 491 kts | 173° |
| 2026-04-20 13:44 | 10.90804 | 140.91206 | 36972 ft | 491 kts | 173° |
| 2026-04-20 13:44 | 10.83999 | 140.91867 | 36973 ft | 491 kts | 173° |
| 2026-04-20 13:45 | 10.77190 | 140.92528 | 36972 ft | 491 kts | 173° |
| 2026-04-20 13:45 | 10.70382 | 140.93188 | 36972 ft | 491 kts | 173° |
| 2026-04-20 13:46 | 10.63572 | 140.93849 | 36976 ft | 491 kts | 173° |
| 2026-04-20 13:46 | 10.56766 | 140.94508 | 36973 ft | 491 kts | 173° |
| 2026-04-20 13:47 | 10.49957 | 140.95168 | 36969 ft | 491 kts | 173° |
| 2026-04-20 13:47 | 10.43149 | 140.95827 | 36971 ft | 491 kts | 173° |
| 2026-04-20 13:48 | 10.36342 | 140.96486 | 36973 ft | 491 kts | 173° |
| 2026-04-20 13:48 | 10.29537 | 140.97145 | 36968 ft | 491 kts | 173° |
| 2026-04-20 13:49 | 10.22777 | 140.97799 | 36967 ft | 491 kts | 173° |
| 2026-04-20 13:49 | 10.15973 | 140.98456 | 36967 ft | 491 kts | 173° |
| 2026-04-20 13:50 | 10.09166 | 140.99114 | 36967 ft | 491 kts | 173° |
| 2026-04-20 13:50 | 10.02361 | 140.99772 | 36974 ft | 491 kts | 173° |
| 2026-04-20 13:51 | 9.95579 | 141.00601 | 36972 ft | 490 kts | 170° |
| 2026-04-20 13:51 | 9.88829 | 141.01644 | 36967 ft | 491 kts | 169° |
| 2026-04-20 13:52 | 9.82087 | 141.02705 | 36967 ft | 491 kts | 169° |
| 2026-04-20 13:52 | 9.75334 | 141.03745 | 36967 ft | 491 kts | 170° |
| 2026-04-20 13:53 | 9.68579 | 141.04771 | 36965 ft | 491 kts | 170° |
| 2026-04-20 13:53 | 9.61818 | 141.05795 | 36962 ft | 491 kts | 170° |
| 2026-04-20 13:54 | 9.55061 | 141.06817 | 36962 ft | 491 kts | 170° |
| 2026-04-20 13:54 | 9.48299 | 141.07842 | 36965 ft | 491 kts | 170° |
| 2026-04-20 13:55 | 9.41542 | 141.08865 | 36965 ft | 491 kts | 170° |
| 2026-04-20 13:55 | 9.34778 | 141.09889 | 36964 ft | 491 kts | 170° |
| 2026-04-20 13:56 | 9.28066 | 141.10905 | 36961 ft | 491 kts | 170° |
| 2026-04-20 13:56 | 9.21305 | 141.11927 | 36959 ft | 491 kts | 170° |
| 2026-04-20 13:57 | 9.14551 | 141.12949 | 36959 ft | 491 kts | 170° |
| 2026-04-20 13:57 | 9.07798 | 141.13969 | 36963 ft | 491 kts | 170° |
| 2026-04-20 13:58 | 9.01047 | 141.14989 | 36962 ft | 491 kts | 170° |
| 2026-04-20 13:58 | 8.94292 | 141.16010 | 36959 ft | 490 kts | 170° |
| 2026-04-20 13:59 | 8.87547 | 141.17028 | 36957 ft | 490 kts | 170° |
| 2026-04-20 13:59 | 8.80804 | 141.18046 | 36959 ft | 490 kts | 170° |
| 2026-04-20 14:00 | 8.74059 | 141.19063 | 36959 ft | 490 kts | 170° |
| 2026-04-20 14:00 | 8.67316 | 141.20080 | 36960 ft | 490 kts | 170° |
| 2026-04-20 14:01 | 8.60577 | 141.21096 | 36961 ft | 490 kts | 170° |
| 2026-04-20 14:01 | 8.53835 | 141.22112 | 36957 ft | 490 kts | 170° |
| 2026-04-20 14:02 | 8.47096 | 141.23127 | 36959 ft | 490 kts | 170° |
| 2026-04-20 14:02 | 8.40361 | 141.24142 | 36960 ft | 490 kts | 170° |
| 2026-04-20 14:03 | 8.33621 | 141.25156 | 36960 ft | 490 kts | 170° |
| 2026-04-20 14:03 | 8.26881 | 141.26171 | 36956 ft | 490 kts | 169° |
| 2026-04-20 14:04 | 8.20146 | 141.27184 | 36962 ft | 490 kts | 169° |
| 2026-04-20 14:04 | 8.13405 | 141.28198 | 36966 ft | 490 kts | 169° |
| 2026-04-20 14:05 | 8.06662 | 141.29211 | 36954 ft | 490 kts | 169° |
| 2026-04-20 14:05 | 7.99923 | 141.30224 | 36957 ft | 490 kts | 169° |
| 2026-04-20 14:06 | 7.93184 | 141.31237 | 36956 ft | 490 kts | 169° |
| 2026-04-20 14:06 | 7.86441 | 141.32249 | 36954 ft | 490 kts | 169° |
| 2026-04-20 14:07 | 7.79705 | 141.33261 | 36957 ft | 489 kts | 169° |
| 2026-04-20 14:07 | 7.72971 | 141.34271 | 36957 ft | 489 kts | 169° |
| 2026-04-20 14:08 | 7.66236 | 141.35282 | 36952 ft | 489 kts | 169° |
| 2026-04-20 14:08 | 7.59508 | 141.36291 | 36956 ft | 489 kts | 169° |
| 2026-04-20 14:09 | 7.52782 | 141.37299 | 36954 ft | 489 kts | 170° |
| 2026-04-20 14:09 | 7.46051 | 141.38308 | 36953 ft | 489 kts | 170° |
| 2026-04-20 14:10 | 7.39331 | 141.39315 | 36953 ft | 488 kts | 170° |
| 2026-04-20 14:10 | 7.32608 | 141.40322 | 36953 ft | 488 kts | 170° |
| 2026-04-20 14:11 | 7.25934 | 141.41322 | 36955 ft | 488 kts | 170° |
| 2026-04-20 14:11 | 7.19172 | 141.42334 | 36952 ft | 488 kts | 170° |
| 2026-04-20 14:12 | 7.12505 | 141.43332 | 36950 ft | 488 kts | 170° |
| 2026-04-20 14:12 | 7.05745 | 141.44343 | 36951 ft | 488 kts | 170° |
| 2026-04-20 14:13 | 6.99034 | 141.45347 | 36953 ft | 488 kts | 170° |
| 2026-04-20 14:13 | 6.92367 | 141.46344 | 36953 ft | 488 kts | 170° |
| 2026-04-20 14:14 | 6.85655 | 141.47348 | 36957 ft | 487 kts | 170° |
| 2026-04-20 14:14 | 6.78946 | 141.48350 | 36955 ft | 487 kts | 170° |
| 2026-04-20 14:15 | 6.72240 | 141.49352 | 36956 ft | 487 kts | 170° |
| 2026-04-20 14:15 | 6.65532 | 141.50354 | 36955 ft | 487 kts | 170° |
| 2026-04-20 14:16 | 6.58825 | 141.51356 | 36956 ft | 487 kts | 170° |
| 2026-04-20 14:16 | 6.52119 | 141.52357 | 36952 ft | 487 kts | 170° |
| 2026-04-20 14:17 | 6.45415 | 141.53357 | 36952 ft | 487 kts | 170° |
| 2026-04-20 14:17 | 6.38706 | 141.54358 | 36953 ft | 487 kts | 170° |
| 2026-04-20 14:18 | 6.32005 | 141.55358 | 36952 ft | 487 kts | 170° |
| 2026-04-20 14:18 | 6.25304 | 141.56357 | 36954 ft | 487 kts | 170° |
| 2026-04-20 14:19 | 6.18607 | 141.57356 | 36956 ft | 487 kts | 170° |
| 2026-04-20 14:19 | 6.11906 | 141.58354 | 36954 ft | 486 kts | 170° |
| 2026-04-20 14:20 | 6.05211 | 141.59352 | 36954 ft | 486 kts | 170° |
| 2026-04-20 14:20 | 5.98517 | 141.60349 | 36955 ft | 486 kts | 170° |
| 2026-04-20 14:21 | 5.91825 | 141.61346 | 36953 ft | 486 kts | 170° |
| 2026-04-20 14:21 | 5.85131 | 141.62343 | 36954 ft | 486 kts | 171° |
| 2026-04-20 14:22 | 5.78441 | 141.63339 | 36952 ft | 486 kts | 171° |
| 2026-04-20 14:22 | 5.72874 | 141.64167 | 36953 ft | 486 kts | 171° |
| 2026-04-20 14:23 | 5.66181 | 141.65163 | 36953 ft | 487 kts | 171° |
| 2026-04-20 14:23 | 5.58395 | 141.66321 | 36951 ft | 487 kts | 171° |
| 2026-04-20 14:24 | 5.52768 | 141.67160 | 36955 ft | 487 kts | 171° |
| 2026-04-20 14:24 | 5.46059 | 141.68156 | 36956 ft | 488 kts | 171° |
| 2026-04-20 14:25 | 5.39336 | 141.69155 | 36954 ft | 489 kts | 171° |
| 2026-04-20 14:25 | 5.32642 | 141.70150 | 36952 ft | 489 kts | 172° |
| 2026-04-20 14:26 | 5.25901 | 141.71151 | 36955 ft | 490 kts | 172° |
| 2026-04-20 14:26 | 5.19154 | 141.72154 | 36955 ft | 491 kts | 172° |
| 2026-04-20 14:27 | 5.12394 | 141.73158 | 36952 ft | 491 kts | 172° |
| 2026-04-20 14:27 | 5.05637 | 141.74162 | 36954 ft | 491 kts | 172° |
| 2026-04-20 14:28 | 4.98872 | 141.75170 | 36954 ft | 491 kts | 171° |
| 2026-04-20 14:28 | 4.92124 | 141.76277 | 36954 ft | 491 kts | 171° |
| 2026-04-20 14:29 | 4.85381 | 141.77428 | 36956 ft | 491 kts | 170° |
| 2026-04-20 14:29 | 4.78641 | 141.78569 | 36957 ft | 491 kts | 171° |
| 2026-04-20 14:30 | 4.71897 | 141.79698 | 36953 ft | 491 kts | 171° |
| 2026-04-20 14:30 | 4.65153 | 141.80823 | 36954 ft | 491 kts | 171° |
| 2026-04-20 14:31 | 4.58416 | 141.81948 | 36954 ft | 491 kts | 171° |
| 2026-04-20 14:31 | 4.51678 | 141.83073 | 36954 ft | 491 kts | 170° |
| 2026-04-20 14:32 | 4.44944 | 141.84198 | 36953 ft | 490 kts | 170° |
| 2026-04-20 14:32 | 4.38212 | 141.85322 | 36951 ft | 490 kts | 170° |
| 2026-04-20 14:33 | 4.31487 | 141.86445 | 36954 ft | 490 kts | 170° |
| 2026-04-20 14:33 | 4.24757 | 141.87568 | 36953 ft | 490 kts | 170° |
| 2026-04-20 14:34 | 4.18033 | 141.88690 | 36955 ft | 490 kts | 170° |
| 2026-04-20 14:34 | 4.11309 | 141.89813 | 36950 ft | 490 kts | 170° |
| 2026-04-20 14:35 | 4.04588 | 141.90934 | 36953 ft | 490 kts | 170° |
| 2026-04-20 14:35 | 3.97840 | 141.91829 | 36953 ft | 489 kts | 177° |
| 2026-04-20 14:36 | 3.91035 | 141.91977 | 36960 ft | 489 kts | 179° |
| 2026-04-20 14:36 | 3.84230 | 141.92060 | 36955 ft | 489 kts | 179° |
| 2026-04-20 14:37 | 3.77418 | 141.92170 | 36958 ft | 489 kts | 179° |
| 2026-04-20 14:37 | 3.70614 | 141.92306 | 36961 ft | 489 kts | 178° |
| 2026-04-20 14:38 | 3.63851 | 141.92449 | 36954 ft | 489 kts | 178° |
| 2026-04-20 14:38 | 3.57046 | 141.92593 | 36959 ft | 489 kts | 178° |
| 2026-04-20 14:39 | 3.50200 | 141.92736 | 36962 ft | 489 kts | 178° |
| 2026-04-20 14:39 | 3.43402 | 141.92877 | 36960 ft | 489 kts | 178° |
| 2026-04-20 14:40 | 3.36602 | 141.93018 | 36960 ft | 488 kts | 178° |
| 2026-04-20 14:40 | 3.29805 | 141.93160 | 36962 ft | 488 kts | 178° |
| 2026-04-20 14:41 | 3.23016 | 141.93301 | 36958 ft | 488 kts | 178° |
| 2026-04-20 14:41 | 3.16579 | 141.93434 | 36962 ft | 488 kts | 178° |
| 2026-04-20 14:42 | 3.09785 | 141.93576 | 36961 ft | 488 kts | 178° |
| 2026-04-20 14:42 | 3.02993 | 141.93717 | 36958 ft | 488 kts | 178° |
| 2026-04-20 14:43 | 2.96207 | 141.93858 | 36960 ft | 488 kts | 178° |
| 2026-04-20 14:43 | 2.89416 | 141.93999 | 36958 ft | 488 kts | 178° |
| 2026-04-20 14:44 | 2.82628 | 141.94140 | 36961 ft | 488 kts | 178° |
| 2026-04-20 14:44 | 2.75843 | 141.94281 | 36960 ft | 488 kts | 178° |
| 2026-04-20 14:45 | 2.69057 | 141.94422 | 36960 ft | 488 kts | 178° |
| 2026-04-20 14:45 | 2.62270 | 141.94562 | 36962 ft | 488 kts | 178° |
| 2026-04-20 14:46 | 2.55487 | 141.94703 | 36959 ft | 487 kts | 178° |
| 2026-04-20 14:46 | 2.48750 | 141.94843 | 36963 ft | 487 kts | 178° |
| 2026-04-20 14:47 | 2.41974 | 141.94984 | 36960 ft | 487 kts | 178° |
| 2026-04-20 14:48 | 2.31804 | 141.95195 | 36965 ft | 487 kts | 178° |
| 2026-04-20 14:48 | 2.25029 | 141.95335 | 36960 ft | 487 kts | 178° |
| 2026-04-20 14:49 | 2.18263 | 141.95476 | 36963 ft | 487 kts | 178° |
| 2026-04-20 14:49 | 2.11490 | 141.95616 | 36960 ft | 486 kts | 178° |
| 2026-04-20 14:50 | 2.04725 | 141.95757 | 36961 ft | 486 kts | 178° |
| 2026-04-20 14:50 | 1.97962 | 141.95897 | 36962 ft | 486 kts | 178° |
| 2026-04-20 14:51 | 1.91200 | 141.96037 | 36962 ft | 486 kts | 178° |
| 2026-04-20 14:51 | 1.84436 | 141.96177 | 36959 ft | 486 kts | 178° |
| 2026-04-20 14:52 | 1.77679 | 141.96318 | 36965 ft | 486 kts | 178° |
| 2026-04-20 14:52 | 1.70919 | 141.96458 | 36962 ft | 486 kts | 178° |
| 2026-04-20 14:53 | 1.64164 | 141.96598 | 36960 ft | 485 kts | 178° |
| 2026-04-20 14:53 | 1.57410 | 141.96738 | 36959 ft | 485 kts | 178° |
| 2026-04-20 14:54 | 1.50662 | 141.96878 | 36962 ft | 485 kts | 178° |
| 2026-04-20 14:54 | 1.43916 | 141.97018 | 36962 ft | 485 kts | 178° |
| 2026-04-20 14:55 | 1.37180 | 141.97157 | 36962 ft | 484 kts | 178° |
| 2026-04-20 14:55 | 1.30448 | 141.97297 | 36963 ft | 484 kts | 178° |
| 2026-04-20 14:56 | 1.23719 | 141.97436 | 36959 ft | 483 kts | 178° |
| 2026-04-20 14:56 | 1.16997 | 141.97575 | 36960 ft | 483 kts | 178° |
| 2026-04-20 14:57 | 1.10285 | 141.97715 | 36960 ft | 482 kts | 178° |
| 2026-04-20 14:57 | 1.03578 | 141.97854 | 36959 ft | 482 kts | 178° |
| 2026-04-20 14:58 | 0.96887 | 141.97992 | 36963 ft | 481 kts | 178° |
| 2026-04-20 14:58 | 0.90194 | 141.98131 | 36964 ft | 480 kts | 178° |
| 2026-04-20 14:59 | 0.83558 | 141.98268 | 36961 ft | 480 kts | 178° |
| 2026-04-20 14:59 | 0.76891 | 141.98406 | 36961 ft | 479 kts | 178° |
| 2026-04-20 15:00 | 0.70220 | 141.98545 | 36963 ft | 479 kts | 178° |
| 2026-04-20 15:00 | 0.63557 | 141.98683 | 36960 ft | 478 kts | 178° |
| 2026-04-20 15:01 | 0.56909 | 141.98821 | 36962 ft | 478 kts | 178° |
| 2026-04-20 15:01 | 0.50265 | 141.98958 | 36963 ft | 477 kts | 178° |
| 2026-04-20 15:02 | 0.43627 | 141.99096 | 36964 ft | 477 kts | 178° |
| 2026-04-20 15:02 | 0.37011 | 141.99233 | 36962 ft | 477 kts | 178° |
| 2026-04-20 15:03 | 0.30380 | 141.99370 | 36958 ft | 476 kts | 178° |
| 2026-04-20 15:03 | 0.23755 | 141.99508 | 36965 ft | 476 kts | 178° |
| 2026-04-20 15:04 | 0.17126 | 141.99645 | 36959 ft | 476 kts | 177° |
| 2026-04-20 15:04 | 0.10510 | 141.99782 | 36965 ft | 475 kts | 177° |
| 2026-04-20 15:05 | 0.03895 | 141.99919 | 36969 ft | 475 kts | 177° |
| 2026-04-20 15:05 | -0.02711 | 142.00070 | 36964 ft | 475 kts | 176° |
| 2026-04-20 15:06 | -0.09309 | 142.00303 | 36962 ft | 475 kts | 176° |
| 2026-04-20 15:06 | -0.15960 | 142.00557 | 36963 ft | 474 kts | 176° |
| 2026-04-20 15:07 | -0.22513 | 142.00799 | 36963 ft | 474 kts | 176° |
| 2026-04-20 15:07 | -0.29104 | 142.01036 | 36965 ft | 474 kts | 176° |
| 2026-04-20 15:08 | -0.35696 | 142.01270 | 36959 ft | 474 kts | 176° |
| 2026-04-20 15:08 | -0.42291 | 142.01503 | 36963 ft | 474 kts | 176° |
| 2026-04-20 15:09 | -0.48890 | 142.01738 | 36956 ft | 474 kts | 176° |
| 2026-04-20 15:09 | -0.55485 | 142.01972 | 36958 ft | 474 kts | 176° |
| 2026-04-20 15:10 | -0.62037 | 142.02205 | 36958 ft | 475 kts | 176° |
| 2026-04-20 15:10 | -0.68640 | 142.02440 | 36960 ft | 475 kts | 176° |
| 2026-04-20 15:11 | -0.75231 | 142.02675 | 36960 ft | 475 kts | 176° |
| 2026-04-20 15:11 | -0.81844 | 142.02910 | 36955 ft | 475 kts | 176° |
| 2026-04-20 15:12 | -0.87385 | 142.03107 | 36956 ft | 475 kts | 176° |
| 2026-04-20 15:12 | -0.93990 | 142.03342 | 36953 ft | 475 kts | 176° |
| 2026-04-20 15:13 | -1.00558 | 142.03575 | 36955 ft | 475 kts | 176° |
| 2026-04-20 15:13 | -1.07169 | 142.03811 | 36956 ft | 475 kts | 176° |
| 2026-04-20 15:14 | -1.13773 | 142.04046 | 36956 ft | 475 kts | 176° |
| 2026-04-20 15:14 | -1.20385 | 142.04281 | 36950 ft | 475 kts | 176° |
| 2026-04-20 15:15 | -1.26988 | 142.04516 | 36951 ft | 475 kts | 176° |
| 2026-04-20 15:15 | -1.33594 | 142.04751 | 36947 ft | 475 kts | 176° |
| 2026-04-20 15:16 | -1.40197 | 142.04986 | 36952 ft | 475 kts | 177° |
| 2026-04-20 15:16 | -1.46806 | 142.05221 | 36949 ft | 475 kts | 177° |
| 2026-04-20 15:17 | -1.53408 | 142.05456 | 36952 ft | 475 kts | 177° |
| 2026-04-20 15:17 | -1.59997 | 142.05690 | 36951 ft | 475 kts | 177° |
| 2026-04-20 15:18 | -1.66614 | 142.05926 | 36951 ft | 475 kts | 177° |
| 2026-04-20 15:18 | -1.73213 | 142.06160 | 36946 ft | 475 kts | 177° |
| 2026-04-20 15:19 | -1.79838 | 142.06396 | 37277 ft | 476 kts | 177° |
| 2026-04-20 15:19 | -1.83139 | 142.06514 | 37614 ft | 473 kts | 177° |
| 2026-04-20 15:19 | -1.86417 | 142.06630 | 37980 ft | 470 kts | 177° |
| 2026-04-20 15:19 | -1.89674 | 142.06746 | 38322 ft | 467 kts | 177° |
| 2026-04-20 15:20 | -1.92918 | 142.06861 | 38612 ft | 465 kts | 177° |
| 2026-04-20 15:20 | -1.96144 | 142.06976 | 38799 ft | 464 kts | 177° |
| 2026-04-20 15:20 | -1.99380 | 142.07092 | 38865 ft | 466 kts | 177° |
| 2026-04-20 15:21 | -2.05866 | 142.07323 | 38942 ft | 466 kts | 177° |
| 2026-04-20 15:21 | -2.12355 | 142.07554 | 38943 ft | 467 kts | 177° |
| 2026-04-20 15:22 | -2.18843 | 142.07785 | 38947 ft | 467 kts | 177° |
| 2026-04-20 15:22 | -2.25332 | 142.08016 | 38950 ft | 467 kts | 177° |
| 2026-04-20 15:23 | -2.31793 | 142.08246 | 38946 ft | 467 kts | 177° |
| 2026-04-20 15:23 | -2.38340 | 142.08479 | 38946 ft | 468 kts | 177° |
| 2026-04-20 15:24 | -2.44846 | 142.08711 | 38943 ft | 468 kts | 177° |
| 2026-04-20 15:24 | -2.51316 | 142.08942 | 38944 ft | 468 kts | 177° |
| 2026-04-20 15:25 | -2.57878 | 142.09176 | 38941 ft | 469 kts | 177° |
| 2026-04-20 15:25 | -2.64352 | 142.09406 | 38944 ft | 469 kts | 177° |
| 2026-04-20 15:26 | -2.70923 | 142.09640 | 38939 ft | 469 kts | 177° |
| 2026-04-20 15:26 | -2.77401 | 142.09871 | 38940 ft | 469 kts | 177° |
| 2026-04-20 15:27 | -2.83922 | 142.10104 | 38942 ft | 469 kts | 177° |
| 2026-04-20 15:27 | -2.90453 | 142.10336 | 38943 ft | 469 kts | 177° |
| 2026-04-20 15:28 | -2.96972 | 142.10569 | 38945 ft | 469 kts | 177° |
| 2026-04-20 15:28 | -3.03486 | 142.10801 | 38947 ft | 468 kts | 177° |
| 2026-04-20 15:29 | -3.09999 | 142.11033 | 38951 ft | 468 kts | 177° |
| 2026-04-20 15:29 | -3.16507 | 142.11265 | 38955 ft | 468 kts | 177° |
| 2026-04-20 15:30 | -3.23010 | 142.11497 | 38959 ft | 467 kts | 177° |
| 2026-04-20 15:30 | -3.29512 | 142.11729 | 38958 ft | 467 kts | 177° |
| 2026-04-20 15:31 | -3.36005 | 142.11961 | 38962 ft | 467 kts | 177° |
| 2026-04-20 15:31 | -3.42500 | 142.12193 | 38961 ft | 467 kts | 177° |
| 2026-04-20 15:32 | -3.48995 | 142.12425 | 38957 ft | 467 kts | 177° |
| 2026-04-20 15:32 | -3.55494 | 142.12657 | 38956 ft | 467 kts | 177° |
| 2026-04-20 15:33 | -3.61996 | 142.12889 | 38951 ft | 468 kts | 177° |
| 2026-04-20 15:33 | -3.68513 | 142.13121 | 38947 ft | 469 kts | 178° |
| 2026-04-20 15:34 | -3.75041 | 142.13355 | 38948 ft | 470 kts | 177° |
| 2026-04-20 15:34 | -3.81579 | 142.13588 | 38939 ft | 471 kts | 177° |
| 2026-04-20 15:35 | -3.88129 | 142.13822 | 38939 ft | 471 kts | 177° |
| 2026-04-20 15:35 | -3.94694 | 142.14056 | 38933 ft | 472 kts | 177° |
| 2026-04-20 15:36 | -4.01260 | 142.14291 | 38932 ft | 473 kts | 177° |
| 2026-04-20 15:36 | -4.07843 | 142.14526 | 38931 ft | 473 kts | 177° |
| 2026-04-20 15:37 | -4.14418 | 142.14761 | 38932 ft | 473 kts | 177° |
| 2026-04-20 15:37 | -4.20995 | 142.14996 | 38935 ft | 473 kts | 177° |
| 2026-04-20 15:38 | -4.27564 | 142.15231 | 38935 ft | 472 kts | 177° |
| 2026-04-20 15:38 | -4.34112 | 142.15465 | 38939 ft | 470 kts | 177° |
| 2026-04-20 15:39 | -4.40649 | 142.15699 | 38941 ft | 469 kts | 177° |
| 2026-04-20 15:39 | -4.47124 | 142.15931 | 38939 ft | 468 kts | 177° |
| 2026-04-20 15:40 | -4.53630 | 142.16164 | 38954 ft | 468 kts | 177° |
| 2026-04-20 15:40 | -4.60133 | 142.16396 | 38961 ft | 467 kts | 177° |
| 2026-04-20 15:41 | -4.66634 | 142.16629 | 38972 ft | 467 kts | 177° |
| 2026-04-20 15:41 | -4.72737 | 142.16848 | 38994 ft | 468 kts | 177° |
| 2026-04-20 15:42 | -4.79245 | 142.17081 | 39003 ft | 468 kts | 177° |
| 2026-04-20 15:42 | -4.85765 | 142.17314 | 39016 ft | 469 kts | 177° |
| 2026-04-20 15:43 | -4.92289 | 142.17548 | 39024 ft | 470 kts | 177° |
| 2026-04-20 15:43 | -4.98821 | 142.17782 | 39037 ft | 470 kts | 177° |
| 2026-04-20 15:44 | -5.05359 | 142.18016 | 39041 ft | 470 kts | 177° |
| 2026-04-20 15:44 | -5.11907 | 142.18251 | 39052 ft | 471 kts | 177° |
| 2026-04-20 15:45 | -5.18456 | 142.18486 | 39051 ft | 471 kts | 177° |
| 2026-04-20 15:45 | -5.25010 | 142.18720 | 39048 ft | 471 kts | 177° |
| 2026-04-20 15:46 | -5.31560 | 142.18955 | 39048 ft | 471 kts | 177° |
| 2026-04-20 15:46 | -5.38122 | 142.19191 | 39040 ft | 471 kts | 177° |
| 2026-04-20 15:47 | -5.44668 | 142.19426 | 39040 ft | 471 kts | 177° |
| 2026-04-20 15:47 | -5.51233 | 142.19661 | 39027 ft | 472 kts | 177° |
| 2026-04-20 15:48 | -5.57785 | 142.19897 | 39013 ft | 471 kts | 177° |
| 2026-04-20 15:48 | -5.64300 | 142.20130 | 39003 ft | 471 kts | 177° |
| 2026-04-20 15:49 | -5.70852 | 142.20366 | 38989 ft | 471 kts | 177° |
| 2026-04-20 15:49 | -5.77406 | 142.20601 | 38977 ft | 471 kts | 177° |
| 2026-04-20 15:50 | -5.83955 | 142.20837 | 38969 ft | 471 kts | 177° |
| 2026-04-20 15:50 | -5.90503 | 142.21072 | 38957 ft | 471 kts | 177° |
| 2026-04-20 15:51 | -5.97044 | 142.21306 | 38948 ft | 470 kts | 177° |
| 2026-04-20 15:51 | -6.03583 | 142.21539 | 38942 ft | 470 kts | 177° |
| 2026-04-20 15:52 | -6.10117 | 142.21773 | 38938 ft | 469 kts | 177° |
| 2026-04-20 15:52 | -6.16642 | 142.22006 | 38935 ft | 469 kts | 177° |
| 2026-04-20 15:53 | -6.26422 | 142.22356 | 38928 ft | 469 kts | 177° |
| 2026-04-20 15:53 | -6.32936 | 142.22590 | 38928 ft | 468 kts | 177° |
| 2026-04-20 15:54 | -6.39448 | 142.22823 | 38923 ft | 468 kts | 177° |
| 2026-04-20 15:54 | -6.45957 | 142.23056 | 38926 ft | 468 kts | 178° |
| 2026-04-20 15:55 | -6.52462 | 142.23289 | 38921 ft | 468 kts | 178° |
| 2026-04-20 15:55 | -6.58966 | 142.23522 | 38921 ft | 467 kts | 178° |
| 2026-04-20 15:56 | -6.65460 | 142.23755 | 38919 ft | 467 kts | 178° |
| 2026-04-20 15:56 | -6.71956 | 142.23988 | 38918 ft | 467 kts | 178° |
| 2026-04-20 15:57 | -6.77351 | 142.24182 | 38918 ft | 467 kts | 178° |
| 2026-04-20 15:57 | -6.83848 | 142.24415 | 38917 ft | 467 kts | 178° |
| 2026-04-20 15:58 | -6.90342 | 142.24648 | 38918 ft | 467 kts | 178° |
| 2026-04-20 15:58 | -6.96839 | 142.24881 | 38917 ft | 467 kts | 178° |
| 2026-04-20 15:59 | -7.03339 | 142.25115 | 38914 ft | 468 kts | 178° |
| 2026-04-20 15:59 | -7.09849 | 142.25348 | 38916 ft | 468 kts | 178° |
| 2026-04-20 16:00 | -7.16361 | 142.25582 | 38916 ft | 469 kts | 178° |
| 2026-04-20 16:00 | -7.22881 | 142.25817 | 38914 ft | 469 kts | 178° |
| 2026-04-20 16:01 | -7.29413 | 142.26052 | 38913 ft | 470 kts | 178° |
| 2026-04-20 16:01 | -7.35955 | 142.26287 | 38912 ft | 471 kts | 178° |
| 2026-04-20 16:02 | -7.42510 | 142.26523 | 38914 ft | 472 kts | 178° |
| 2026-04-20 16:02 | -7.49071 | 142.26759 | 38918 ft | 472 kts | 178° |
| 2026-04-20 16:03 | -7.55639 | 142.26995 | 38914 ft | 472 kts | 178° |
| 2026-04-20 16:03 | -7.62212 | 142.27232 | 38912 ft | 473 kts | 178° |
| 2026-04-20 16:04 | -7.68784 | 142.27468 | 38914 ft | 473 kts | 178° |
| 2026-04-20 16:04 | -7.75358 | 142.27705 | 38916 ft | 473 kts | 178° |
| 2026-04-20 16:05 | -7.81889 | 142.27941 | 38913 ft | 473 kts | 178° |
| 2026-04-20 16:05 | -7.88461 | 142.28178 | 38913 ft | 472 kts | 178° |
| 2026-04-20 16:06 | -7.95026 | 142.28414 | 38912 ft | 472 kts | 178° |
| 2026-04-20 16:06 | -8.01594 | 142.28651 | 38910 ft | 472 kts | 178° |
| 2026-04-20 16:07 | -8.08162 | 142.28888 | 38909 ft | 472 kts | 178° |
| 2026-04-20 16:07 | -8.14722 | 142.29125 | 38909 ft | 472 kts | 178° |
| 2026-04-20 16:08 | -8.21279 | 142.29362 | 38908 ft | 471 kts | 178° |
| 2026-04-20 16:08 | -8.27834 | 142.29599 | 38908 ft | 471 kts | 178° |
| 2026-04-20 16:09 | -8.34382 | 142.29835 | 38911 ft | 471 kts | 178° |
| 2026-04-20 16:09 | -8.40918 | 142.30072 | 38910 ft | 470 kts | 178° |
| 2026-04-20 16:10 | -8.47460 | 142.30308 | 38909 ft | 470 kts | 178° |
| 2026-04-20 16:10 | -8.53991 | 142.30544 | 38910 ft | 470 kts | 178° |
| 2026-04-20 16:11 | -8.60525 | 142.30781 | 38907 ft | 470 kts | 178° |
| 2026-04-20 16:11 | -8.67056 | 142.31017 | 38910 ft | 470 kts | 178° |
| 2026-04-20 16:12 | -8.73552 | 142.31252 | 38911 ft | 470 kts | 178° |
| 2026-04-20 16:12 | -8.79695 | 142.31475 | 38912 ft | 470 kts | 178° |
| 2026-04-20 16:13 | -8.86239 | 142.31712 | 38911 ft | 471 kts | 178° |
| 2026-04-20 16:13 | -8.92794 | 142.31950 | 38911 ft | 472 kts | 178° |
| 2026-04-20 16:14 | -8.99360 | 142.32188 | 38910 ft | 472 kts | 178° |
| 2026-04-20 16:14 | -9.05930 | 142.32426 | 38910 ft | 473 kts | 178° |
| 2026-04-20 16:15 | -9.12518 | 142.32665 | 38909 ft | 474 kts | 178° |
| 2026-04-20 16:15 | -9.19108 | 142.32905 | 38909 ft | 474 kts | 178° |
| 2026-04-20 16:16 | -9.25708 | 142.33146 | 38912 ft | 475 kts | 178° |
| 2026-04-20 16:16 | -9.32307 | 142.33282 | 38914 ft | 475 kts | 181° |
| 2026-04-20 16:17 | -9.38916 | 142.33088 | 38916 ft | 475 kts | 182° |
| 2026-04-20 16:17 | -9.45526 | 142.32842 | 38916 ft | 476 kts | 182° |
| 2026-04-20 16:18 | -9.52156 | 142.32616 | 38914 ft | 477 kts | 182° |
| 2026-04-20 16:18 | -9.58793 | 142.32408 | 38913 ft | 478 kts | 182° |
| 2026-04-20 16:19 | -9.65454 | 142.32205 | 38914 ft | 479 kts | 182° |
| 2026-04-20 16:19 | -9.72116 | 142.32000 | 38913 ft | 481 kts | 182° |
| 2026-04-20 16:20 | -9.78822 | 142.31796 | 38913 ft | 482 kts | 182° |
| 2026-04-20 16:20 | -9.85541 | 142.31587 | 38912 ft | 484 kts | 182° |
| 2026-04-20 16:21 | -9.92288 | 142.31377 | 38915 ft | 486 kts | 182° |
| 2026-04-20 16:21 | -9.99063 | 142.31166 | 38910 ft | 488 kts | 182° |
| 2026-04-20 16:22 | -10.05865 | 142.30956 | 38918 ft | 490 kts | 182° |
| 2026-04-20 16:22 | -10.12686 | 142.30744 | 38915 ft | 491 kts | 182° |
| 2026-04-20 16:23 | -10.19517 | 142.30533 | 38918 ft | 491 kts | 182° |
| 2026-04-20 16:23 | -10.26358 | 142.30319 | 38915 ft | 492 kts | 182° |
| 2026-04-20 16:24 | -10.33202 | 142.30108 | 38913 ft | 492 kts | 182° |
| 2026-04-20 16:24 | -10.40004 | 142.29897 | 38916 ft | 492 kts | 182° |
| 2026-04-20 16:25 | -10.46849 | 142.29684 | 38911 ft | 492 kts | 182° |
| 2026-04-20 16:25 | -10.53688 | 142.29471 | 38912 ft | 491 kts | 182° |
| 2026-04-20 16:26 | -10.60519 | 142.29411 | 38918 ft | 491 kts | 176° |
| 2026-04-20 16:26 | -10.67315 | 142.30178 | 38918 ft | 491 kts | 173° |
| 2026-04-20 16:27 | -10.74088 | 142.31065 | 38914 ft | 491 kts | 173° |
| 2026-04-20 16:27 | -10.80866 | 142.31931 | 38914 ft | 490 kts | 174° |
| 2026-04-20 16:28 | -10.87631 | 142.32765 | 38918 ft | 490 kts | 174° |
| 2026-04-20 16:28 | -10.94395 | 142.33587 | 38922 ft | 489 kts | 174° |
| 2026-04-20 16:29 | -11.01157 | 142.34408 | 38922 ft | 489 kts | 174° |
| 2026-04-20 16:29 | -11.07912 | 142.35231 | 38920 ft | 489 kts | 174° |
| 2026-04-20 16:30 | -11.14664 | 142.36055 | 38922 ft | 489 kts | 174° |
| 2026-04-20 16:30 | -11.21415 | 142.36879 | 38922 ft | 488 kts | 174° |
| 2026-04-20 16:31 | -11.28160 | 142.37703 | 38925 ft | 488 kts | 174° |
| 2026-04-20 16:31 | -11.34909 | 142.38528 | 38922 ft | 488 kts | 174° |
| 2026-04-20 16:32 | -11.41649 | 142.39352 | 38926 ft | 488 kts | 175° |
| 2026-04-20 16:32 | -11.48395 | 142.40177 | 38925 ft | 488 kts | 175° |
| 2026-04-20 16:33 | -11.55134 | 142.41002 | 38922 ft | 488 kts | 175° |
| 2026-04-20 16:33 | -11.61877 | 142.41827 | 38927 ft | 488 kts | 175° |
| 2026-04-20 16:34 | -11.68617 | 142.42653 | 38927 ft | 488 kts | 175° |
| 2026-04-20 16:34 | -11.75308 | 142.43473 | 38930 ft | 487 kts | 175° |
| 2026-04-20 16:35 | -11.82041 | 142.44298 | 38931 ft | 487 kts | 175° |
| 2026-04-20 16:35 | -11.88369 | 142.45075 | 38928 ft | 487 kts | 175° |
| 2026-04-20 16:36 | -11.95096 | 142.45900 | 38952 ft | 487 kts | 175° |
| 2026-04-20 16:36 | -12.01805 | 142.46729 | 38929 ft | 484 kts | 175° |
| 2026-04-20 16:37 | -12.08477 | 142.47550 | 38927 ft | 481 kts | 175° |
| 2026-04-20 16:37 | -12.15105 | 142.48361 | 38930 ft | 479 kts | 175° |
| 2026-04-20 16:38 | -12.21711 | 142.49172 | 38932 ft | 477 kts | 175° |
| 2026-04-20 16:38 | -12.28294 | 142.49981 | 38935 ft | 476 kts | 175° |
| 2026-04-20 16:39 | -12.34870 | 142.50790 | 38938 ft | 476 kts | 175° |
| 2026-04-20 16:39 | -12.41447 | 142.51600 | 38939 ft | 476 kts | 176° |
| 2026-04-20 16:40 | -12.48032 | 142.52411 | 38936 ft | 476 kts | 176° |
| 2026-04-20 16:40 | -12.54615 | 142.53223 | 38942 ft | 477 kts | 176° |
| 2026-04-20 16:41 | -12.61204 | 142.54036 | 38939 ft | 477 kts | 176° |
| 2026-04-20 16:41 | -12.67794 | 142.54849 | 38939 ft | 477 kts | 176° |
| 2026-04-20 16:42 | -12.74385 | 142.55663 | 38941 ft | 477 kts | 176° |
| 2026-04-20 16:42 | -12.80988 | 142.56478 | 38940 ft | 478 kts | 176° |
| 2026-04-20 16:43 | -12.87586 | 142.57294 | 38942 ft | 478 kts | 176° |
| 2026-04-20 16:43 | -12.94197 | 142.58112 | 38947 ft | 478 kts | 176° |
| 2026-04-20 16:44 | -13.00760 | 142.58924 | 38946 ft | 479 kts | 176° |
| 2026-04-20 16:44 | -13.07383 | 142.59743 | 38945 ft | 479 kts | 176° |
| 2026-04-20 16:45 | -13.14007 | 142.60564 | 38942 ft | 480 kts | 176° |
| 2026-04-20 16:45 | -13.20638 | 142.61386 | 38947 ft | 481 kts | 176° |
| 2026-04-20 16:46 | -13.26169 | 142.62072 | 38950 ft | 482 kts | 176° |
| 2026-04-20 16:46 | -13.32831 | 142.62898 | 38952 ft | 482 kts | 176° |
| 2026-04-20 16:47 | -13.39498 | 142.63726 | 38953 ft | 483 kts | 176° |
| 2026-04-20 16:47 | -13.46173 | 142.64555 | 38956 ft | 484 kts | 176° |
| 2026-04-20 16:48 | -13.52860 | 142.65386 | 38953 ft | 484 kts | 176° |
| 2026-04-20 16:48 | -13.59548 | 142.66218 | 38957 ft | 484 kts | 176° |
| 2026-04-20 16:49 | -13.66232 | 142.67049 | 38959 ft | 484 kts | 176° |
| 2026-04-20 16:49 | -13.72925 | 142.67882 | 38957 ft | 484 kts | 176° |
| 2026-04-20 16:50 | -13.79613 | 142.68715 | 38962 ft | 484 kts | 176° |
| 2026-04-20 16:50 | -13.86304 | 142.69550 | 38961 ft | 484 kts | 176° |
| 2026-04-20 16:51 | -13.92992 | 142.70384 | 38962 ft | 484 kts | 176° |
| 2026-04-20 16:51 | -13.99668 | 142.71217 | 38961 ft | 483 kts | 176° |
| 2026-04-20 16:52 | -14.06348 | 142.72051 | 38965 ft | 483 kts | 177° |
| 2026-04-20 16:52 | -14.13017 | 142.72884 | 38967 ft | 483 kts | 177° |
| 2026-04-20 16:53 | -14.19683 | 142.73717 | 38970 ft | 482 kts | 177° |
| 2026-04-20 16:53 | -14.26341 | 142.74550 | 38968 ft | 482 kts | 177° |
| 2026-04-20 16:54 | -14.32992 | 142.75382 | 38971 ft | 481 kts | 177° |
| 2026-04-20 16:54 | -14.39636 | 142.76214 | 38971 ft | 481 kts | 177° |
| 2026-04-20 16:55 | -14.46273 | 142.77045 | 38973 ft | 480 kts | 177° |
| 2026-04-20 16:55 | -14.52915 | 142.77878 | 38977 ft | 480 kts | 177° |
| 2026-04-20 16:56 | -14.59542 | 142.78709 | 38976 ft | 480 kts | 177° |
| 2026-04-20 16:56 | -14.66167 | 142.79541 | 38977 ft | 479 kts | 177° |
| 2026-04-20 16:57 | -14.72783 | 142.80372 | 38977 ft | 479 kts | 177° |
| 2026-04-20 16:57 | -14.79394 | 142.81203 | 38983 ft | 478 kts | 177° |
| 2026-04-20 16:58 | -14.85951 | 142.82027 | 38977 ft | 478 kts | 177° |
| 2026-04-20 16:58 | -14.92545 | 142.82857 | 38980 ft | 477 kts | 177° |
| 2026-04-20 16:59 | -14.99131 | 142.83686 | 38983 ft | 477 kts | 177° |
| 2026-04-20 16:59 | -15.05717 | 142.84516 | 38985 ft | 477 kts | 177° |
| 2026-04-20 17:00 | -15.15553 | 142.85756 | 38984 ft | 477 kts | 177° |
| 2026-04-20 17:01 | -15.22173 | 142.86591 | 38988 ft | 477 kts | 177° |
| 2026-04-20 17:01 | -15.27652 | 142.87282 | 38980 ft | 477 kts | 177° |
| 2026-04-20 17:02 | -15.34243 | 142.88115 | 38985 ft | 478 kts | 177° |
| 2026-04-20 17:02 | -15.40847 | 142.88950 | 38988 ft | 478 kts | 178° |
| 2026-04-20 17:03 | -15.47445 | 142.89784 | 38983 ft | 478 kts | 178° |
| 2026-04-20 17:03 | -15.54055 | 142.90621 | 38986 ft | 479 kts | 178° |
| 2026-04-20 17:04 | -15.60677 | 142.91460 | 38987 ft | 479 kts | 178° |
| 2026-04-20 17:04 | -15.67289 | 142.92298 | 38989 ft | 479 kts | 178° |
| 2026-04-20 17:05 | -15.73900 | 142.93136 | 38991 ft | 479 kts | 178° |
| 2026-04-20 17:05 | -15.80509 | 142.93975 | 38986 ft | 478 kts | 178° |
| 2026-04-20 17:06 | -15.87117 | 142.94814 | 38989 ft | 478 kts | 178° |
| 2026-04-20 17:06 | -15.93721 | 142.95653 | 38991 ft | 478 kts | 178° |
| 2026-04-20 17:07 | -16.00276 | 142.96487 | 38989 ft | 478 kts | 178° |
| 2026-04-20 17:07 | -16.06870 | 142.97326 | 38997 ft | 477 kts | 178° |
| 2026-04-20 17:08 | -16.13461 | 142.98165 | 38998 ft | 477 kts | 178° |
| 2026-04-20 17:08 | -16.20051 | 142.99004 | 38998 ft | 477 kts | 178° |
| 2026-04-20 17:09 | -16.26637 | 142.99844 | 39002 ft | 477 kts | 178° |
| 2026-04-20 17:09 | -16.33224 | 143.00685 | 39000 ft | 477 kts | 178° |
| 2026-04-20 17:10 | -16.39810 | 143.01525 | 39001 ft | 476 kts | 178° |
| 2026-04-20 17:10 | -16.46384 | 143.02365 | 39001 ft | 476 kts | 178° |
| 2026-04-20 17:11 | -16.52955 | 143.03205 | 38999 ft | 476 kts | 178° |
| 2026-04-20 17:11 | -16.59523 | 143.04045 | 39003 ft | 475 kts | 178° |
| 2026-04-20 17:12 | -16.66089 | 143.04886 | 39006 ft | 475 kts | 178° |
| 2026-04-20 17:12 | -16.72646 | 143.05726 | 39005 ft | 475 kts | 179° |
| 2026-04-20 17:13 | -16.79202 | 143.06566 | 39009 ft | 475 kts | 179° |
| 2026-04-20 17:13 | -16.85759 | 143.07407 | 39009 ft | 474 kts | 179° |
| 2026-04-20 17:14 | -16.92312 | 143.08249 | 39010 ft | 474 kts | 179° |
| 2026-04-20 17:14 | -16.98856 | 143.09089 | 39012 ft | 474 kts | 179° |
| 2026-04-20 17:15 | -17.05400 | 143.09930 | 39012 ft | 474 kts | 179° |
| 2026-04-20 17:15 | -17.11905 | 143.10767 | 39014 ft | 474 kts | 179° |
| 2026-04-20 17:16 | -17.18445 | 143.11609 | 39018 ft | 473 kts | 179° |
| 2026-04-20 17:16 | -17.24981 | 143.12451 | 39019 ft | 473 kts | 179° |
| 2026-04-20 17:17 | -17.31506 | 143.13292 | 39018 ft | 473 kts | 179° |
| 2026-04-20 17:17 | -17.38036 | 143.14135 | 39021 ft | 472 kts | 179° |
| 2026-04-20 17:18 | -17.44555 | 143.14976 | 39023 ft | 472 kts | 179° |
| 2026-04-20 17:18 | -17.51070 | 143.15818 | 39023 ft | 471 kts | 179° |
| 2026-04-20 17:19 | -17.57578 | 143.16659 | 39027 ft | 471 kts | 179° |
| 2026-04-20 17:19 | -17.64072 | 143.17500 | 39018 ft | 470 kts | 179° |
| 2026-04-20 17:20 | -17.70553 | 143.18339 | 39020 ft | 469 kts | 179° |
| 2026-04-20 17:20 | -17.77025 | 143.19177 | 39025 ft | 468 kts | 179° |
| 2026-04-20 17:21 | -17.83487 | 143.20015 | 39030 ft | 467 kts | 179° |
| 2026-04-20 17:21 | -17.89938 | 143.20852 | 39035 ft | 467 kts | 179° |
| 2026-04-20 17:22 | -17.96380 | 143.21689 | 39034 ft | 466 kts | 179° |
| 2026-04-20 17:22 | -18.02803 | 143.22524 | 39034 ft | 465 kts | 179° |
| 2026-04-20 17:23 | -18.09227 | 143.23359 | 39036 ft | 465 kts | 179° |
| 2026-04-20 17:23 | -18.15638 | 143.24194 | 39033 ft | 464 kts | 179° |
| 2026-04-20 17:24 | -18.22048 | 143.25028 | 39037 ft | 464 kts | 179° |
| 2026-04-20 17:24 | -18.28444 | 143.25921 | 39036 ft | 466 kts | 175° |
| 2026-04-20 17:25 | -18.34730 | 143.27811 | 39041 ft | 474 kts | 165° |
| 2026-04-20 17:25 | -18.40771 | 143.30724 | 39051 ft | 479 kts | 160° |
| 2026-04-20 17:26 | -18.46744 | 143.33828 | 39049 ft | 479 kts | 160° |
| 2026-04-20 17:26 | -18.52717 | 143.36919 | 39046 ft | 478 kts | 160° |
| 2026-04-20 17:27 | -18.58699 | 143.39981 | 39050 ft | 478 kts | 161° |
| 2026-04-20 17:27 | -18.64682 | 143.43029 | 39055 ft | 477 kts | 161° |
| 2026-04-20 17:28 | -18.70663 | 143.46076 | 39051 ft | 477 kts | 161° |
| 2026-04-20 17:28 | -18.76631 | 143.49122 | 39061 ft | 476 kts | 161° |
| 2026-04-20 17:29 | -18.82594 | 143.52168 | 39067 ft | 476 kts | 161° |
| 2026-04-20 17:29 | -18.88554 | 143.55215 | 39060 ft | 475 kts | 161° |
| 2026-04-20 17:30 | -18.94503 | 143.58259 | 39074 ft | 475 kts | 161° |
| 2026-04-20 17:30 | -19.00440 | 143.61299 | 39068 ft | 474 kts | 161° |
| 2026-04-20 17:31 | -19.05368 | 143.63825 | 39078 ft | 473 kts | 161° |
| 2026-04-20 17:31 | -19.11288 | 143.66861 | 39084 ft | 472 kts | 161° |
| 2026-04-20 17:32 | -19.17198 | 143.69894 | 39078 ft | 472 kts | 161° |
| 2026-04-20 17:32 | -19.23103 | 143.72927 | 39092 ft | 471 kts | 161° |
| 2026-04-20 17:33 | -19.29000 | 143.75958 | 39080 ft | 471 kts | 161° |
| 2026-04-20 17:33 | -19.34890 | 143.78989 | 39107 ft | 470 kts | 161° |
| 2026-04-20 17:34 | -19.40778 | 143.82020 | 39091 ft | 470 kts | 161° |
| 2026-04-20 17:34 | -19.46653 | 143.85047 | 39106 ft | 470 kts | 161° |
| 2026-04-20 17:35 | -19.52537 | 143.88082 | 39100 ft | 470 kts | 161° |
| 2026-04-20 17:35 | -19.58413 | 143.91115 | 39103 ft | 470 kts | 162° |
| 2026-04-20 17:36 | -19.64294 | 143.94153 | 39110 ft | 470 kts | 162° |
| 2026-04-20 17:36 | -19.70168 | 143.97189 | 39114 ft | 470 kts | 162° |
| 2026-04-20 17:37 | -19.76043 | 144.00229 | 39109 ft | 470 kts | 162° |
| 2026-04-20 17:37 | -19.81913 | 144.03269 | 39107 ft | 469 kts | 162° |
| 2026-04-20 17:38 | -19.87778 | 144.06309 | 39112 ft | 469 kts | 162° |
| 2026-04-20 17:38 | -19.93642 | 144.09350 | 39112 ft | 469 kts | 162° |
| 2026-04-20 17:39 | -19.99501 | 144.12392 | 39110 ft | 468 kts | 162° |
| 2026-04-20 17:39 | -20.05355 | 144.15434 | 39111 ft | 468 kts | 162° |
| 2026-04-20 17:40 | -20.11201 | 144.18473 | 39109 ft | 468 kts | 162° |
| 2026-04-20 17:40 | -20.17057 | 144.21521 | 39111 ft | 468 kts | 162° |
| 2026-04-20 17:41 | -20.22909 | 144.24569 | 39109 ft | 468 kts | 162° |
| 2026-04-20 17:41 | -20.28762 | 144.27621 | 39107 ft | 468 kts | 162° |
| 2026-04-20 17:42 | -20.34616 | 144.30675 | 39108 ft | 468 kts | 162° |
| 2026-04-20 17:42 | -20.40425 | 144.33709 | 39106 ft | 468 kts | 162° |
| 2026-04-20 17:43 | -20.46267 | 144.36763 | 39108 ft | 468 kts | 162° |
| 2026-04-20 17:43 | -20.52120 | 144.39824 | 39107 ft | 468 kts | 162° |
| 2026-04-20 17:44 | -20.57967 | 144.42885 | 39102 ft | 468 kts | 163° |
| 2026-04-20 17:44 | -20.63815 | 144.45945 | 39112 ft | 468 kts | 163° |
| 2026-04-20 17:45 | -20.69665 | 144.49009 | 39106 ft | 468 kts | 163° |
| 2026-04-20 17:45 | -20.75515 | 144.52076 | 39113 ft | 468 kts | 163° |
| 2026-04-20 17:46 | -20.81366 | 144.55148 | 39108 ft | 468 kts | 163° |
| 2026-04-20 17:46 | -20.87210 | 144.58218 | 39112 ft | 468 kts | 163° |
| 2026-04-20 17:47 | -20.93055 | 144.61292 | 39111 ft | 468 kts | 163° |
| 2026-04-20 17:47 | -20.98895 | 144.64365 | 39114 ft | 468 kts | 163° |
| 2026-04-20 17:48 | -21.04737 | 144.67442 | 39111 ft | 468 kts | 163° |
| 2026-04-20 17:48 | -21.10530 | 144.70497 | 39116 ft | 467 kts | 163° |
| 2026-04-20 17:49 | -21.16364 | 144.73575 | 39112 ft | 467 kts | 163° |
| 2026-04-20 17:49 | -21.22201 | 144.76658 | 39110 ft | 467 kts | 163° |
| 2026-04-20 17:50 | -21.28031 | 144.79740 | 39118 ft | 467 kts | 163° |
| 2026-04-20 17:50 | -21.33855 | 144.82821 | 39112 ft | 467 kts | 163° |
| 2026-04-20 17:51 | -21.39684 | 144.85908 | 39113 ft | 467 kts | 163° |
| 2026-04-20 17:51 | -21.45512 | 144.88997 | 39114 ft | 467 kts | 163° |
| 2026-04-20 17:52 | -21.51331 | 144.92084 | 39118 ft | 467 kts | 163° |
| 2026-04-20 17:52 | -21.57153 | 144.95176 | 39116 ft | 467 kts | 163° |
| 2026-04-20 17:53 | -21.62977 | 144.98271 | 39117 ft | 466 kts | 163° |
| 2026-04-20 17:53 | -21.68789 | 145.01363 | 39120 ft | 466 kts | 163° |
| 2026-04-20 17:54 | -21.74590 | 145.04452 | 39115 ft | 465 kts | 163° |
| 2026-04-20 17:54 | -21.80395 | 145.07545 | 39116 ft | 465 kts | 163° |
| 2026-04-20 17:55 | -21.86183 | 145.10632 | 39118 ft | 464 kts | 163° |
| 2026-04-20 17:55 | -21.91971 | 145.13722 | 39120 ft | 464 kts | 163° |
| 2026-04-20 17:56 | -21.97749 | 145.16809 | 39105 ft | 463 kts | 163° |
| 2026-04-20 17:56 | -22.03521 | 145.19897 | 39113 ft | 463 kts | 163° |
| 2026-04-20 17:57 | -22.09283 | 145.22982 | 39118 ft | 462 kts | 163° |
| 2026-04-20 17:57 | -22.15041 | 145.26068 | 39123 ft | 462 kts | 163° |
| 2026-04-20 17:58 | -22.20789 | 145.29151 | 39123 ft | 461 kts | 164° |
| 2026-04-20 17:58 | -22.26492 | 145.32212 | 39124 ft | 460 kts | 164° |
| 2026-04-20 17:59 | -22.32258 | 145.35311 | 39125 ft | 460 kts | 164° |
| 2026-04-20 17:59 | -22.37947 | 145.38371 | 39119 ft | 459 kts | 164° |
| 2026-04-20 18:00 | -22.43664 | 145.41448 | 39122 ft | 459 kts | 164° |
| 2026-04-20 18:00 | -22.49411 | 145.44545 | 39124 ft | 458 kts | 164° |
| 2026-04-20 18:01 | -22.55068 | 145.47596 | 39123 ft | 457 kts | 164° |
| 2026-04-20 18:01 | -22.60765 | 145.50672 | 39123 ft | 457 kts | 164° |
| 2026-04-20 18:02 | -22.66454 | 145.53745 | 39125 ft | 457 kts | 164° |
| 2026-04-20 18:02 | -22.72135 | 145.56817 | 39131 ft | 457 kts | 164° |
| 2026-04-20 18:03 | -22.77821 | 145.59896 | 39125 ft | 457 kts | 164° |
| 2026-04-20 18:03 | -22.83503 | 145.62974 | 39127 ft | 456 kts | 164° |
| 2026-04-20 18:04 | -22.89181 | 145.66054 | 39128 ft | 456 kts | 164° |
| 2026-04-20 18:04 | -22.94860 | 145.69137 | 39132 ft | 456 kts | 164° |
| 2026-04-20 18:05 | -23.03361 | 145.73758 | 39122 ft | 455 kts | 164° |
| 2026-04-20 18:05 | -23.09021 | 145.76839 | 39130 ft | 454 kts | 164° |
| 2026-04-20 18:06 | -23.14664 | 145.79912 | 39135 ft | 454 kts | 164° |
| 2026-04-20 18:06 | -23.20304 | 145.82986 | 39134 ft | 454 kts | 163° |
| 2026-04-20 18:07 | -23.25958 | 145.86072 | 39135 ft | 454 kts | 163° |
| 2026-04-20 18:07 | -23.31604 | 145.89155 | 39134 ft | 454 kts | 163° |
| 2026-04-20 18:08 | -23.37241 | 145.92237 | 39134 ft | 454 kts | 163° |
| 2026-04-20 18:08 | -23.42885 | 145.95326 | 39138 ft | 454 kts | 163° |
| 2026-04-20 18:09 | -23.48478 | 145.98390 | 39136 ft | 454 kts | 163° |
| 2026-04-20 18:09 | -23.54122 | 146.01485 | 39139 ft | 454 kts | 163° |
| 2026-04-20 18:10 | -23.59765 | 146.04582 | 39139 ft | 454 kts | 163° |
| 2026-04-20 18:10 | -23.65402 | 146.07679 | 39139 ft | 454 kts | 163° |
| 2026-04-20 18:11 | -23.71041 | 146.10780 | 39142 ft | 453 kts | 163° |
| 2026-04-20 18:11 | -23.76669 | 146.13879 | 39140 ft | 453 kts | 163° |
| 2026-04-20 18:12 | -23.82301 | 146.16982 | 39145 ft | 453 kts | 162° |
| 2026-04-20 18:12 | -23.87924 | 146.20084 | 39147 ft | 453 kts | 162° |
| 2026-04-20 18:13 | -23.93541 | 146.23185 | 39153 ft | 452 kts | 162° |
| 2026-04-20 18:13 | -23.99155 | 146.26288 | 39145 ft | 452 kts | 162° |
| 2026-04-20 18:14 | -24.04766 | 146.29391 | 39149 ft | 452 kts | 162° |
| 2026-04-20 18:14 | -24.10373 | 146.32496 | 39155 ft | 451 kts | 162° |
| 2026-04-20 18:15 | -24.15978 | 146.35603 | 39155 ft | 451 kts | 162° |
| 2026-04-20 18:15 | -24.21574 | 146.38708 | 39158 ft | 451 kts | 162° |
| 2026-04-20 18:16 | -24.27171 | 146.41816 | 39158 ft | 451 kts | 162° |
| 2026-04-20 18:16 | -24.32771 | 146.44930 | 39161 ft | 451 kts | 161° |
| 2026-04-20 18:17 | -24.38365 | 146.48043 | 39158 ft | 451 kts | 161° |
| 2026-04-20 18:17 | -24.43020 | 146.50637 | 39164 ft | 452 kts | 161° |
| 2026-04-20 18:18 | -24.48625 | 146.53764 | 39166 ft | 452 kts | 161° |
| 2026-04-20 18:18 | -24.54235 | 146.56899 | 39168 ft | 453 kts | 161° |
| 2026-04-20 18:19 | -24.59846 | 146.60039 | 39164 ft | 453 kts | 161° |
| 2026-04-20 18:19 | -24.65466 | 146.63186 | 39166 ft | 454 kts | 161° |
| 2026-04-20 18:20 | -24.71091 | 146.66340 | 39169 ft | 454 kts | 160° |
| 2026-04-20 18:20 | -24.76718 | 146.69498 | 39167 ft | 454 kts | 160° |
| 2026-04-20 18:21 | -24.82353 | 146.72663 | 39174 ft | 455 kts | 160° |
| 2026-04-20 18:21 | -24.87984 | 146.75830 | 39174 ft | 455 kts | 160° |
| 2026-04-20 18:22 | -24.93620 | 146.79002 | 39177 ft | 455 kts | 160° |
| 2026-04-20 18:22 | -24.99263 | 146.82182 | 39176 ft | 455 kts | 160° |
| 2026-04-20 18:23 | -25.04906 | 146.85365 | 39185 ft | 456 kts | 160° |
| 2026-04-20 18:23 | -25.10556 | 146.88555 | 39188 ft | 456 kts | 159° |
| 2026-04-20 18:24 | -25.16207 | 146.91750 | 39189 ft | 457 kts | 159° |
| 2026-04-20 18:24 | -25.21861 | 146.94950 | 39198 ft | 457 kts | 159° |
| 2026-04-20 18:25 | -25.27523 | 146.98157 | 39203 ft | 457 kts | 159° |
| 2026-04-20 18:25 | -25.33183 | 147.01366 | 39198 ft | 458 kts | 159° |
| 2026-04-20 18:26 | -25.38848 | 147.04582 | 39198 ft | 458 kts | 159° |
| 2026-04-20 18:26 | -25.44512 | 147.07801 | 39203 ft | 458 kts | 159° |
| 2026-04-20 18:27 | -25.50178 | 147.11024 | 39204 ft | 458 kts | 159° |
| 2026-04-20 18:27 | -25.55837 | 147.14247 | 39203 ft | 458 kts | 159° |
| 2026-04-20 18:28 | -25.61495 | 147.17474 | 39202 ft | 457 kts | 159° |
| 2026-04-20 18:28 | -25.67116 | 147.20682 | 39204 ft | 457 kts | 158° |
| 2026-04-20 18:29 | -25.72766 | 147.23909 | 39199 ft | 457 kts | 158° |
| 2026-04-20 18:29 | -25.78415 | 147.27141 | 39203 ft | 457 kts | 158° |
| 2026-04-20 18:30 | -25.84059 | 147.30373 | 39201 ft | 456 kts | 158° |
| 2026-04-20 18:30 | -25.89697 | 147.33605 | 39204 ft | 456 kts | 158° |
| 2026-04-20 18:31 | -25.95335 | 147.36840 | 39206 ft | 456 kts | 158° |
| 2026-04-20 18:31 | -26.00974 | 147.40078 | 39205 ft | 456 kts | 158° |
| 2026-04-20 18:32 | -26.06606 | 147.43317 | 39207 ft | 456 kts | 158° |
| 2026-04-20 18:32 | -26.12237 | 147.46560 | 39209 ft | 456 kts | 158° |
| 2026-04-20 18:33 | -26.17868 | 147.49806 | 39201 ft | 456 kts | 158° |
| 2026-04-20 18:33 | -26.23500 | 147.53057 | 39207 ft | 456 kts | 158° |
| 2026-04-20 18:34 | -26.29130 | 147.56310 | 39203 ft | 456 kts | 158° |
| 2026-04-20 18:34 | -26.34767 | 147.59570 | 39200 ft | 456 kts | 158° |
| 2026-04-20 18:35 | -26.40400 | 147.62832 | 39204 ft | 456 kts | 158° |
| 2026-04-20 18:35 | -26.46034 | 147.66098 | 39194 ft | 457 kts | 158° |
| 2026-04-20 18:36 | -26.51673 | 147.69371 | 39198 ft | 457 kts | 157° |
| 2026-04-20 18:36 | -26.57306 | 147.72643 | 39200 ft | 457 kts | 157° |
| 2026-04-20 18:37 | -26.62947 | 147.75924 | 39204 ft | 457 kts | 157° |
| 2026-04-20 18:37 | -26.68598 | 147.79215 | 39210 ft | 458 kts | 157° |
| 2026-04-20 18:38 | -26.74242 | 147.82505 | 39204 ft | 458 kts | 157° |
| 2026-04-20 18:38 | -26.79890 | 147.85801 | 39204 ft | 458 kts | 157° |
| 2026-04-20 18:39 | -26.85500 | 147.89080 | 39204 ft | 458 kts | 157° |
| 2026-04-20 18:39 | -26.91186 | 147.92405 | 39203 ft | 458 kts | 157° |
| 2026-04-20 18:40 | -26.96795 | 147.95690 | 39210 ft | 458 kts | 157° |
| 2026-04-20 18:40 | -27.02446 | 147.99003 | 39207 ft | 458 kts | 157° |
| 2026-04-20 18:41 | -27.08098 | 148.02321 | 39206 ft | 458 kts | 157° |
| 2026-04-20 18:41 | -27.13746 | 148.05641 | 39212 ft | 458 kts | 157° |
| 2026-04-20 18:42 | -27.19328 | 148.08926 | 39201 ft | 453 kts | 157° |
| 2026-04-20 18:42 | -27.24942 | 148.12234 | 39211 ft | 451 kts | 157° |
| 2026-04-20 18:43 | -27.30499 | 148.15508 | 39218 ft | 451 kts | 157° |
| 2026-04-20 18:43 | -27.36062 | 148.18793 | 39214 ft | 452 kts | 157° |
| 2026-04-20 18:44 | -27.41631 | 148.22088 | 39215 ft | 453 kts | 157° |
| 2026-04-20 18:44 | -27.47208 | 148.25394 | 39213 ft | 453 kts | 157° |
| 2026-04-20 18:45 | -27.52781 | 148.28702 | 39217 ft | 453 kts | 157° |
| 2026-04-20 18:45 | -27.58361 | 148.32017 | 39218 ft | 453 kts | 157° |
| 2026-04-20 18:46 | -27.63935 | 148.35332 | 39215 ft | 453 kts | 157° |
| 2026-04-20 18:46 | -27.69502 | 148.38647 | 39215 ft | 452 kts | 157° |
| 2026-04-20 18:47 | -27.75059 | 148.41960 | 39216 ft | 452 kts | 157° |
| 2026-04-20 18:47 | -27.80624 | 148.45282 | 39218 ft | 452 kts | 156° |
| 2026-04-20 18:48 | -27.86178 | 148.48601 | 39218 ft | 451 kts | 156° |
| 2026-04-20 18:48 | -27.91727 | 148.51921 | 39218 ft | 451 kts | 156° |
| 2026-04-20 18:49 | -27.97270 | 148.55242 | 39217 ft | 451 kts | 156° |
| 2026-04-20 18:49 | -28.02813 | 148.58576 | 39222 ft | 451 kts | 155° |
| 2026-04-20 18:50 | -28.08025 | 148.62619 | 39223 ft | 457 kts | 146° |
| 2026-04-20 18:50 | -28.12953 | 148.67190 | 39225 ft | 458 kts | 145° |
| 2026-04-20 18:51 | -28.17871 | 148.71775 | 39225 ft | 458 kts | 146° |
| 2026-04-20 18:51 | -28.22765 | 148.76306 | 39226 ft | 458 kts | 146° |
| 2026-04-20 18:52 | -28.27709 | 148.80866 | 39228 ft | 458 kts | 146° |
| 2026-04-20 18:52 | -28.32666 | 148.85439 | 39226 ft | 459 kts | 146° |
| 2026-04-20 18:53 | -28.37625 | 148.90022 | 39227 ft | 460 kts | 146° |
| 2026-04-20 18:53 | -28.42595 | 148.94622 | 39226 ft | 461 kts | 146° |
| 2026-04-20 18:54 | -28.47561 | 148.99224 | 39230 ft | 461 kts | 146° |
| 2026-04-20 18:54 | -28.52534 | 149.03837 | 39228 ft | 461 kts | 146° |
| 2026-04-20 18:55 | -28.57501 | 149.08452 | 39232 ft | 461 kts | 146° |
| 2026-04-20 18:55 | -28.62462 | 149.13068 | 39240 ft | 461 kts | 146° |
| 2026-04-20 18:56 | -28.67421 | 149.17687 | 39236 ft | 460 kts | 146° |
| 2026-04-20 18:56 | -28.72373 | 149.22305 | 39236 ft | 459 kts | 146° |
| 2026-04-20 18:57 | -28.77308 | 149.26912 | 39235 ft | 458 kts | 146° |
| 2026-04-20 18:57 | -28.82240 | 149.31524 | 39241 ft | 458 kts | 146° |
| 2026-04-20 18:58 | -28.87156 | 149.36126 | 39240 ft | 457 kts | 146° |
| 2026-04-20 18:58 | -28.92064 | 149.40726 | 39245 ft | 457 kts | 146° |
| 2026-04-20 18:59 | -28.96975 | 149.45329 | 39249 ft | 456 kts | 146° |
| 2026-04-20 18:59 | -29.01873 | 149.49925 | 39246 ft | 456 kts | 146° |
| 2026-04-20 19:00 | -29.06766 | 149.54523 | 39250 ft | 455 kts | 146° |
| 2026-04-20 19:00 | -29.11656 | 149.59125 | 39249 ft | 455 kts | 146° |
| 2026-04-20 19:01 | -29.16539 | 149.63726 | 39251 ft | 455 kts | 146° |
| 2026-04-20 19:01 | -29.21416 | 149.68327 | 39256 ft | 454 kts | 146° |
| 2026-04-20 19:02 | -29.26287 | 149.72929 | 39255 ft | 454 kts | 146° |
| 2026-04-20 19:02 | -29.31155 | 149.77534 | 39254 ft | 454 kts | 146° |
| 2026-04-20 19:03 | -29.35997 | 149.82120 | 39255 ft | 454 kts | 146° |
| 2026-04-20 19:03 | -29.40856 | 149.86728 | 39249 ft | 454 kts | 146° |
| 2026-04-20 19:04 | -29.45715 | 149.91343 | 39256 ft | 453 kts | 146° |
| 2026-04-20 19:04 | -29.49781 | 149.95208 | 39258 ft | 453 kts | 146° |
| 2026-04-20 19:05 | -29.54632 | 149.99827 | 39266 ft | 453 kts | 146° |
| 2026-04-20 19:05 | -29.59478 | 150.04446 | 39265 ft | 452 kts | 146° |
| 2026-04-20 19:06 | -29.64501 | 150.08699 | 39267 ft | 444 kts | 156° |
| 2026-04-20 19:06 | -29.70049 | 150.11558 | 39270 ft | 436 kts | 167° |
| 2026-04-20 19:07 | -29.75892 | 150.13354 | 39272 ft | 434 kts | 170° |
| 2026-04-20 19:07 | -29.81744 | 150.15042 | 39270 ft | 434 kts | 169° |
| 2026-04-20 19:08 | -29.90521 | 150.17632 | 39272 ft | 434 kts | 169° |
| 2026-04-20 19:09 | -29.96407 | 150.19399 | 39271 ft | 434 kts | 169° |
| 2026-04-20 19:09 | -30.02244 | 150.21159 | 39281 ft | 434 kts | 169° |
| 2026-04-20 19:10 | -30.08045 | 150.22908 | 39291 ft | 434 kts | 169° |
| 2026-04-20 19:10 | -30.13882 | 150.24670 | 39296 ft | 433 kts | 169° |
| 2026-04-20 19:11 | -30.19710 | 150.26432 | 39297 ft | 433 kts | 169° |
| 2026-04-20 19:11 | -30.25547 | 150.28198 | 39302 ft | 434 kts | 169° |
| 2026-04-20 19:12 | -30.31388 | 150.29967 | 39304 ft | 434 kts | 169° |
| 2026-04-20 19:12 | -30.37226 | 150.31739 | 39301 ft | 434 kts | 169° |
| 2026-04-20 19:13 | -30.43067 | 150.33513 | 39317 ft | 434 kts | 169° |
| 2026-04-20 19:13 | -30.48909 | 150.35288 | 39312 ft | 434 kts | 169° |
| 2026-04-20 19:14 | -30.54750 | 150.37067 | 39311 ft | 434 kts | 169° |
| 2026-04-20 19:14 | -30.60579 | 150.38844 | 39305 ft | 433 kts | 169° |
| 2026-04-20 19:15 | -30.66402 | 150.40622 | 39322 ft | 433 kts | 169° |
| 2026-04-20 19:15 | -30.72224 | 150.42401 | 39318 ft | 432 kts | 169° |
| 2026-04-20 19:16 | -30.78037 | 150.44180 | 39317 ft | 432 kts | 169° |
| 2026-04-20 19:16 | -30.83838 | 150.45957 | 39324 ft | 431 kts | 169° |
| 2026-04-20 19:17 | -30.89599 | 150.47723 | 39325 ft | 431 kts | 169° |
| 2026-04-20 19:17 | -30.95403 | 150.49503 | 39326 ft | 431 kts | 169° |
| 2026-04-20 19:18 | -31.01201 | 150.51284 | 39326 ft | 431 kts | 169° |
| 2026-04-20 19:18 | -31.06994 | 150.53067 | 39324 ft | 431 kts | 169° |
| 2026-04-20 19:19 | -31.12788 | 150.54852 | 39326 ft | 431 kts | 169° |
| 2026-04-20 19:19 | -31.18590 | 150.56641 | 39324 ft | 431 kts | 169° |
| 2026-04-20 19:20 | -31.24390 | 150.58433 | 39328 ft | 431 kts | 169° |
| 2026-04-20 19:20 | -31.30197 | 150.60228 | 39333 ft | 431 kts | 169° |
| 2026-04-20 19:21 | -31.35999 | 150.62025 | 39331 ft | 432 kts | 169° |
| 2026-04-20 19:21 | -31.41805 | 150.63825 | 39331 ft | 432 kts | 169° |
| 2026-04-20 19:22 | -31.47616 | 150.65629 | 39327 ft | 432 kts | 169° |
| 2026-04-20 19:22 | -31.53423 | 150.67435 | 39338 ft | 432 kts | 169° |
| 2026-04-20 19:23 | -31.59230 | 150.69242 | 39336 ft | 432 kts | 169° |
| 2026-04-20 19:23 | -31.65040 | 150.71052 | 39339 ft | 432 kts | 169° |
| 2026-04-20 19:24 | -31.70841 | 150.72863 | 39337 ft | 431 kts | 169° |
| 2026-04-20 19:24 | -31.76629 | 150.74672 | 39337 ft | 430 kts | 168° |
| 2026-04-20 19:25 | -31.82408 | 150.76480 | 39343 ft | 429 kts | 168° |
| 2026-04-20 19:25 | -31.88179 | 150.78288 | 39341 ft | 428 kts | 168° |
| 2026-04-20 19:26 | -31.93936 | 150.80094 | 39339 ft | 428 kts | 168° |
| 2026-04-20 19:26 | -31.99671 | 150.81895 | 39348 ft | 427 kts | 168° |
| 2026-04-20 19:26 | -32.02552 | 150.82791 | 39013 ft | 430 kts | 169° |
| 2026-04-20 19:27 | -32.05474 | 150.83499 | 38443 ft | 425 kts | 174° |
| 2026-04-20 19:27 | -32.08375 | 150.84008 | 37950 ft | 419 kts | 174° |
| 2026-04-20 19:27 | -32.11246 | 150.84491 | 37450 ft | 414 kts | 174° |
| 2026-04-20 19:27 | -32.14074 | 150.84965 | 36978 ft | 409 kts | 174° |
| 2026-04-20 19:28 | -32.16877 | 150.85440 | 36525 ft | 405 kts | 174° |
| 2026-04-20 19:28 | -32.19649 | 150.85915 | 36065 ft | 401 kts | 174° |
| 2026-04-20 19:28 | -32.22401 | 150.86391 | 35591 ft | 398 kts | 174° |
| 2026-04-20 19:28 | -32.25126 | 150.86865 | 35138 ft | 395 kts | 174° |
| 2026-04-20 19:29 | -32.27829 | 150.87336 | 34669 ft | 392 kts | 174° |
| 2026-04-20 19:29 | -32.30487 | 150.87801 | 34183 ft | 390 kts | 174° |
| 2026-04-20 19:29 | -32.33160 | 150.88268 | 33673 ft | 387 kts | 174° |
| 2026-04-20 19:29 | -32.35811 | 150.88731 | 33185 ft | 384 kts | 174° |
| 2026-04-20 19:30 | -32.38449 | 150.89193 | 32720 ft | 381 kts | 174° |
| 2026-04-20 19:30 | -32.41056 | 150.89649 | 32261 ft | 378 kts | 173° |
| 2026-04-20 19:30 | -32.43651 | 150.90104 | 31810 ft | 375 kts | 173° |
| 2026-04-20 19:30 | -32.46228 | 150.90556 | 31357 ft | 373 kts | 173° |
| 2026-04-20 19:31 | -32.48787 | 150.91004 | 30918 ft | 371 kts | 173° |
| 2026-04-20 19:31 | -32.51331 | 150.91453 | 30475 ft | 369 kts | 173° |
| 2026-04-20 19:31 | -32.53862 | 150.91906 | 29953 ft | 367 kts | 173° |
| 2026-04-20 19:31 | -32.56384 | 150.92360 | 29435 ft | 365 kts | 173° |
| 2026-04-20 19:32 | -32.58890 | 150.92811 | 28941 ft | 363 kts | 173° |
| 2026-04-20 19:32 | -32.61380 | 150.93260 | 28451 ft | 361 kts | 173° |
| 2026-04-20 19:32 | -32.63862 | 150.93707 | 27960 ft | 360 kts | 173° |
| 2026-04-20 19:32 | -32.66333 | 150.94152 | 27492 ft | 358 kts | 173° |
| 2026-04-20 19:33 | -32.68794 | 150.94595 | 27021 ft | 357 kts | 172° |
| 2026-04-20 19:33 | -32.71248 | 150.95037 | 26557 ft | 356 kts | 172° |
| 2026-04-20 19:33 | -32.73697 | 150.95478 | 26088 ft | 356 kts | 172° |
| 2026-04-20 19:33 | -32.76137 | 150.95918 | 25630 ft | 354 kts | 172° |
| 2026-04-20 19:34 | -32.78576 | 150.96359 | 25180 ft | 354 kts | 172° |
| 2026-04-20 19:34 | -32.81006 | 150.96794 | 24725 ft | 354 kts | 172° |
| 2026-04-20 19:34 | -32.83443 | 150.97226 | 24257 ft | 354 kts | 172° |
| 2026-04-20 19:34 | -32.85875 | 150.97656 | 23786 ft | 354 kts | 172° |
| 2026-04-20 19:35 | -32.88311 | 150.98088 | 23265 ft | 353 kts | 172° |
| 2026-04-20 19:35 | -32.90732 | 150.98517 | 22807 ft | 351 kts | 172° |
| 2026-04-20 19:35 | -32.93143 | 150.98946 | 22362 ft | 350 kts | 172° |
| 2026-04-20 19:35 | -32.95545 | 150.99373 | 21916 ft | 348 kts | 172° |
| 2026-04-20 19:36 | -32.97932 | 150.99798 | 21480 ft | 346 kts | 172° |
| 2026-04-20 19:36 | -33.00311 | 151.00221 | 21042 ft | 345 kts | 172° |
| 2026-04-20 19:36 | -33.02675 | 151.00642 | 20620 ft | 344 kts | 172° |
| 2026-04-20 19:36 | -33.05054 | 151.01066 | 20180 ft | 344 kts | 172° |
| 2026-04-20 19:37 | -33.07418 | 151.01488 | 19740 ft | 344 kts | 172° |
| 2026-04-20 19:37 | -33.09792 | 151.01912 | 19295 ft | 344 kts | 172° |
| 2026-04-20 19:37 | -33.12161 | 151.02335 | 18848 ft | 345 kts | 172° |
| 2026-04-20 19:37 | -33.14542 | 151.02761 | 18340 ft | 346 kts | 172° |
| 2026-04-20 19:38 | -33.16926 | 151.03187 | 17848 ft | 347 kts | 172° |
| 2026-04-20 19:38 | -33.19310 | 151.03613 | 17359 ft | 347 kts | 172° |
| 2026-04-20 19:38 | -33.21693 | 151.04040 | 16877 ft | 346 kts | 172° |
| 2026-04-20 19:38 | -33.24073 | 151.04467 | 16408 ft | 346 kts | 172° |
| 2026-04-20 19:39 | -33.26458 | 151.04916 | 15928 ft | 346 kts | 171° |
| 2026-04-20 19:39 | -33.28835 | 151.05374 | 15461 ft | 346 kts | 171° |
| 2026-04-20 19:39 | -33.31216 | 151.05834 | 14972 ft | 347 kts | 171° |
| 2026-04-20 19:39 | -33.33600 | 151.06291 | 14492 ft | 347 kts | 171° |
| 2026-04-20 19:40 | -33.35977 | 151.06746 | 14045 ft | 345 kts | 171° |
| 2026-04-20 19:40 | -33.38304 | 151.07193 | 13576 ft | 342 kts | 171° |
| 2026-04-20 19:40 | -33.40672 | 151.07647 | 13102 ft | 338 kts | 171° |
| 2026-04-20 19:40 | -33.42953 | 151.08085 | 12656 ft | 336 kts | 171° |
| 2026-04-20 19:41 | -33.45252 | 151.08526 | 12197 ft | 333 kts | 171° |
| 2026-04-20 19:41 | -33.47529 | 151.08964 | 11750 ft | 330 kts | 171° |
| 2026-04-20 19:41 | -33.49787 | 151.09398 | 11308 ft | 327 kts | 171° |
| 2026-04-20 19:41 | -33.52024 | 151.09829 | 10873 ft | 325 kts | 171° |
| 2026-04-20 19:42 | -33.54251 | 151.10258 | 10444 ft | 322 kts | 171° |
| 2026-04-20 19:42 | -33.56456 | 151.10683 | 9995 ft | 320 kts | 171° |
| 2026-04-20 19:42 | -33.58646 | 151.11104 | 9536 ft | 318 kts | 171° |
| 2026-04-20 19:42 | -33.60818 | 151.11522 | 9130 ft | 314 kts | 171° |
| 2026-04-20 19:43 | -33.62936 | 151.11935 | 8950 ft | 302 kts | 170° |
| 2026-04-20 19:43 | -33.64976 | 151.12339 | 8799 ft | 291 kts | 170° |
| 2026-04-20 19:43 | -33.66940 | 151.12728 | 8613 ft | 282 kts | 170° |
| 2026-04-20 19:43 | -33.68855 | 151.13106 | 8431 ft | 276 kts | 170° |
| 2026-04-20 19:44 | -33.70742 | 151.13478 | 8251 ft | 274 kts | 170° |
| 2026-04-20 19:44 | -33.72616 | 151.13842 | 8083 ft | 272 kts | 170° |
| 2026-04-20 19:44 | -33.74480 | 151.14203 | 7905 ft | 271 kts | 170° |
| 2026-04-20 19:44 | -33.76336 | 151.14562 | 7737 ft | 270 kts | 170° |
| 2026-04-20 19:45 | -33.78186 | 151.14921 | 7556 ft | 269 kts | 170° |
| 2026-04-20 19:45 | -33.80025 | 151.15277 | 7393 ft | 267 kts | 170° |
| 2026-04-20 19:45 | -33.81845 | 151.15338 | 7199 ft | 263 kts | 188° |
| 2026-04-20 19:45 | -33.83644 | 151.14815 | 7111 ft | 270 kts | 192° |
| 2026-04-20 19:46 | -33.85477 | 151.14262 | 6996 ft | 273 kts | 192° |
| 2026-04-20 19:46 | -33.87310 | 151.13719 | 6831 ft | 268 kts | 191° |
| 2026-04-20 19:46 | -33.89102 | 151.13194 | 6645 ft | 261 kts | 191° |
| 2026-04-20 19:46 | -33.90850 | 151.12688 | 6456 ft | 258 kts | 191° |
| 2026-04-20 19:47 | -33.92591 | 151.12185 | 6278 ft | 256 kts | 191° |
| 2026-04-20 19:47 | -33.94321 | 151.11686 | 6096 ft | 256 kts | 191° |
| 2026-04-20 19:47 | -33.96056 | 151.11186 | 5913 ft | 256 kts | 191° |
| 2026-04-20 19:47 | -33.97785 | 151.10687 | 5742 ft | 255 kts | 191° |
| 2026-04-20 19:48 | -33.99499 | 151.10191 | 5568 ft | 251 kts | 191° |
| 2026-04-20 19:48 | -34.01179 | 151.09705 | 5374 ft | 245 kts | 191° |
| 2026-04-20 19:48 | -34.02815 | 151.09232 | 5194 ft | 240 kts | 191° |
| 2026-04-20 19:48 | -34.04419 | 151.08768 | 5016 ft | 234 kts | 191° |
| 2026-04-20 19:49 | -34.05987 | 151.08314 | 4896 ft | 230 kts | 191° |
| 2026-04-20 19:49 | -34.07539 | 151.07878 | 4746 ft | 226 kts | 187° |
| 2026-04-20 19:49 | -34.09073 | 151.07962 | 4601 ft | 219 kts | 166° |
| 2026-04-20 19:49 | -34.10585 | 151.08390 | 4506 ft | 227 kts | 167° |
| 2026-04-20 19:50 | -34.12139 | 151.08798 | 4387 ft | 230 kts | 167° |
| 2026-04-20 19:50 | -34.13682 | 151.09199 | 4254 ft | 223 kts | 167° |
| 2026-04-20 19:50 | -34.15178 | 151.09586 | 4126 ft | 216 kts | 167° |
| 2026-04-20 19:50 | -34.16618 | 151.09960 | 4046 ft | 207 kts | 168° |
| 2026-04-20 19:51 | -34.18003 | 151.10319 | 4002 ft | 201 kts | 168° |
| 2026-04-20 19:51 | -34.19360 | 151.10671 | 4003 ft | 198 kts | 168° |
| 2026-04-20 19:51 | -34.20669 | 151.11137 | 3985 ft | 199 kts | 150° |
| 2026-04-20 19:51 | -34.21612 | 151.12363 | 3881 ft | 211 kts | 117° |
| 2026-04-20 19:52 | -34.21807 | 151.14166 | 3775 ft | 222 kts | 84° |
| 2026-04-20 19:52 | -34.21356 | 151.15959 | 3675 ft | 225 kts | 74° |
| 2026-04-20 19:52 | -34.20781 | 151.17724 | 3543 ft | 226 kts | 73° |
| 2026-04-20 19:52 | -34.20340 | 151.18851 | 3443 ft | 225 kts | 62° |
| 2026-04-20 19:53 | -34.19379 | 151.20352 | 3334 ft | 226 kts | 53° |
| 2026-04-20 19:53 | -34.18162 | 151.21566 | 3292 ft | 234 kts | 36° |
| 2026-04-20 19:53 | -34.16732 | 151.22544 | 3164 ft | 235 kts | 24° |
| 2026-04-20 19:53 | -34.15157 | 151.22778 | 3053 ft | 225 kts | 355° |
| 2026-04-20 19:54 | -34.13653 | 151.22536 | 3010 ft | 215 kts | 349° |
| 2026-04-20 19:54 | -34.12202 | 151.22185 | 2990 ft | 211 kts | 347° |
| 2026-04-20 19:54 | -34.10766 | 151.21809 | 2936 ft | 214 kts | 347° |
| 2026-04-20 19:54 | -34.09294 | 151.21422 | 2625 ft | 216 kts | 346° |
| 2026-04-20 19:55 | -34.07833 | 151.21040 | 2339 ft | 212 kts | 346° |
| 2026-04-20 19:55 | -34.06432 | 151.20672 | 2041 ft | 200 kts | 346° |
| 2026-04-20 19:55 | -34.05118 | 151.20329 | 1771 ft | 186 kts | 346° |
| 2026-04-20 19:55 | -34.03870 | 151.20004 | 1549 ft | 181 kts | 346° |
| 2026-04-20 19:56 | -34.02653 | 151.19687 | 1344 ft | 173 kts | 346° |
| 2026-04-20 19:56 | -34.01522 | 151.19383 | 1009 ft | 161 kts | 345° |
| 2026-04-20 19:56 | -34.00468 | 151.19096 | 834 ft | 151 kts | 345° |
| 2026-04-20 19:56 | -33.99455 | 151.18853 | 674 ft | 150 kts | 345° |
| 2026-04-20 19:57 | -33.98441 | 151.18593 | 475 ft | 146 kts | 339° |
| 2026-04-20 19:57 | -33.97462 | 151.18320 | 269 ft | 145 kts | 342° |
| 2026-04-20 19:57 | -33.96482 | 151.18082 | 88 ft | 143 kts | 342° |
| 2026-04-20 19:57 | -33.95558 | 151.17835 | 34 ft | 123 kts | 347° |
| 2026-04-20 19:58 | -33.94881 | 151.17663 | 33 ft | 73 kts | 349° |
| 2026-04-20 19:58 | -33.94548 | 151.17552 | 34 ft | 42 kts | 335° |
| 2026-04-20 19:58 | -33.94357 | 151.17388 | 34 ft | 27 kts | 317° |
| 2026-04-20 19:58 | -33.94233 | 151.17293 | 34 ft | 19 kts | 347° |
| 2026-04-20 19:59 | -33.94111 | 151.17260 | 33 ft | 15 kts | 347° |
| 2026-04-20 19:59 | -33.94037 | 151.17241 | 34 ft | 10 kts | 349° |
| 2026-04-20 19:59 | -33.93981 | 151.17214 | 34 ft | 6 kts | 313° |
| 2026-04-20 19:59 | -33.93983 | 151.17164 | 34 ft | 7 kts | 250° |
| 2026-04-20 20:00 | -33.93975 | 151.17121 | 34 ft | 3 kts | 317° |
| 2026-04-20 20:00 | -33.93953 | 151.17107 | 34 ft | 4 kts | 336° |
| 2026-04-20 20:00 | -33.93914 | 151.17074 | 34 ft | 8 kts | 291° |
| 2026-04-20 20:00 | -33.93919 | 151.17008 | 34 ft | 8 kts | 255° |
| 2026-04-20 20:01 | -33.93925 | 151.16982 | 34 ft | 1 kts | 254° |
| 2026-04-20 20:01 | -33.93925 | 151.16980 | 34 ft | 0 kts | 254° |